Time;durP1;ratioP1;P1;durP2;ratioP2;P2;SDS_P1;SDS_P2;PMS_P1;PMS_P2;Temp;Humidity;BMP_temperature;BMP_pressure;BME280_temperature;BME280_humidity;BME280_pressure;Samples;Min_cycle;Max_cycle;Signal;HPM_P1;HPM_P2
2021/05/27 00:00:41;;;;;;;;;;;8.30;99.90;;;;;;5091464;28;19912;-69
2021/05/27 00:03:07;;;;;;;;;;;8.20;99.90;;;;;;5091371;28;19908;-71
2021/05/27 00:05:32;;;;;;;;;;;8.20;99.90;;;;;;5091323;28;19919;-70
2021/05/27 00:07:58;;;;;;;;;;;8.20;99.90;;;;;;5090863;28;19939;-69
2021/05/27 00:10:24;;;;;;;;;;;8.20;99.90;;;;;;5091582;28;19953;-71
2021/05/27 00:12:50;;;;;;;;;;;8.20;99.90;;;;;;5091331;28;19934;-69
2021/05/27 00:15:16;;;;;;;;;;;8.10;99.90;;;;;;5091505;28;19908;-71
2021/05/27 00:17:42;;;;;;;;;;;8.10;99.90;;;;;;5090635;28;20361;-70
2021/05/27 00:20:08;;;;;;;;;;;8.10;99.90;;;;;;5091452;28;19908;-71
2021/05/27 00:22:34;;;;;;;;;;;8.10;99.90;;;;;;5091183;28;19912;-69
2021/05/27 00:25:00;;;;;;;;;;;8.10;99.90;;;;;;5091206;28;20387;-71
2021/05/27 00:27:25;;;;;;;;;;;8.10;99.90;;;;;;5086516;28;19908;-71
2021/05/27 00:29:51;;;;;;;;;;;8.10;99.90;;;;;;5091142;28;19915;-71
2021/05/27 00:32:16;;;;;;;;;;;8.10;99.90;;;;;;5091354;28;19908;-70
2021/05/27 00:34:42;;;;;;;;;;;8.20;99.90;;;;;;5091184;28;20182;-71
2021/05/27 00:37:07;;;;;;;;;;;8.20;99.90;;;;;;5090257;28;19994;-70
2021/05/27 00:39:32;;;;;;;;;;;8.20;99.90;;;;;;5090913;28;19908;-70
2021/05/27 00:41:58;;;;;;;;;;;8.10;99.90;;;;;;5091174;28;19912;-71
2021/05/27 00:44:27;;;;;;;;;;;8.00;99.90;;;;;;5090845;28;19996;-71
2021/05/27 00:46:54;;;;;;;;;;;8.00;99.90;;;;;;5090183;28;19966;-70
2021/05/27 00:49:20;;;;;;;;;;;8.00;99.90;;;;;;5095889;28;19911;-71
2021/05/27 00:51:46;;;;;;;;;;;8.10;99.90;;;;;;5111280;28;19980;-71
2021/05/27 00:54:13;;;;;;;;;;;8.00;99.90;;;;;;5111341;28;19939;-71
2021/05/27 00:56:38;;;;;;;;;;;8.10;99.90;;;;;;5110572;28;19953;-71
2021/05/27 00:59:04;;;;;;;;;;;8.10;99.90;;;;;;5111278;28;19912;-71
2021/05/27 01:01:30;;;;;;;;;;;8.10;99.90;;;;;;5111279;28;19908;-71
2021/05/27 01:03:56;;;;;;;;;;;8.10;99.90;;;;;;5110844;28;19915;-70
2021/05/27 01:06:21;;;;;;;;;;;8.10;99.90;;;;;;5110263;28;19912;-71
2021/05/27 01:08:47;;;;;;;;;;;8.10;99.90;;;;;;5111011;28;19931;-71
2021/05/27 01:11:15;;;;;;;;;;;8.20;99.90;;;;;;5111353;28;20395;-71
2021/05/27 01:13:40;;;;;;;;;;;8.10;99.90;;;;;;5110798;28;19915;-71
2021/05/27 01:16:11;;;;;;;;;;;8.10;99.90;;;;;;5114473;28;20299;-71
2021/05/27 01:18:36;;;;;;;;;;;8.10;99.90;;;;;;5106359;28;19908;-71
2021/05/27 01:21:02;;;;;;;;;;;8.10;99.90;;;;;;5094417;28;19919;-71
2021/05/27 01:23:27;;;;;;;;;;;8.00;99.90;;;;;;5094594;28;19915;-70
2021/05/27 01:25:54;;;;;;;;;;;8.00;99.90;;;;;;5093868;28;20346;-71
2021/05/27 01:28:20;;;;;;;;;;;8.00;99.90;;;;;;5094814;28;19908;-70
2021/05/27 01:30:46;;;;;;;;;;;8.00;99.90;;;;;;5094851;28;20350;-71
2021/05/27 01:33:12;;;;;;;;;;;8.00;99.90;;;;;;5094410;28;19947;-70
2021/05/27 01:35:38;;;;;;;;;;;8.00;99.90;;;;;;5093738;28;20331;-70
2021/05/27 01:38:14;;;;;;;;;;;8.00;99.90;;;;;;5093949;28;19912;-71
2021/05/27 01:40:39;;;;;;;;;;;8.00;99.90;;;;;;5094606;28;19927;-71
2021/05/27 01:43:05;;;;;;;;;;;8.00;99.90;;;;;;5094314;28;19916;-71
2021/05/27 01:45:31;;;;;;;;;;;7.90;99.90;;;;;;5094128;28;19958;-71
2021/05/27 01:47:56;;;;;;;;;;;8.00;99.90;;;;;;5089735;28;20325;-71
2021/05/27 01:50:22;;;;;;;;;;;8.00;99.90;;;;;;5091262;28;19908;-71
2021/05/27 01:52:48;;;;;;;;;;;8.00;99.90;;;;;;5093155;28;20201;-71
2021/05/27 01:55:14;;;;;;;;;;;8.00;99.90;;;;;;5093995;28;19990;-71
2021/05/27 01:57:39;;;;;;;;;;;8.00;99.90;;;;;;5093332;28;19919;-71
2021/05/27 02:00:05;;;;;;;;;;;8.00;99.90;;;;;;5093985;28;19953;-70
2021/05/27 02:02:30;;;;;;;;;;;8.00;99.90;;;;;;5093797;28;20003;-70
2021/05/27 02:04:56;;;;;;;;;;;8.00;99.90;;;;;;5093418;28;19908;-71
2021/05/27 02:07:21;;;;;;;;;;;8.00;99.90;;;;;;5092952;28;19916;-71
2021/05/27 02:09:47;;;;;;;;;;;8.00;99.90;;;;;;5093769;28;20003;-70
2021/05/27 02:12:12;;;;;;;;;;;8.00;99.90;;;;;;5092435;28;20380;-71
2021/05/27 02:14:38;;;;;;;;;;;8.10;99.90;;;;;;5093746;28;20098;-71
2021/05/27 02:17:03;;;;;;;;;;;8.10;99.90;;;;;;5092592;28;20357;-70
2021/05/27 02:19:29;;;;;;;;;;;8.10;99.90;;;;;;5090210;28;19966;-69
2021/05/27 02:21:54;;;;;;;;;;;8.10;99.90;;;;;;5093327;28;20312;-71
2021/05/27 02:24:20;;;;;;;;;;;8.20;99.90;;;;;;5093109;28;20376;-71
2021/05/27 02:26:45;;;;;;;;;;;8.10;99.90;;;;;;5092632;28;19919;-71
2021/05/27 02:29:11;;;;;;;;;;;8.10;99.90;;;;;;5093298;28;19908;-70
2021/05/27 02:31:37;;;;;;;;;;;8.10;99.90;;;;;;5092881;28;19911;-71
2021/05/27 02:34:03;;;;;;;;;;;8.10;99.90;;;;;;5092987;28;20362;-71
2021/05/27 02:36:29;;;;;;;;;;;8.10;99.90;;;;;;5092298;28;20361;-71
2021/05/27 02:38:55;;;;;;;;;;;8.10;99.90;;;;;;5092894;28;19909;-71
2021/05/27 02:41:21;;;;;;;;;;;8.10;99.90;;;;;;5093084;28;19930;-71
2021/05/27 02:43:46;;;;;;;;;;;8.10;99.90;;;;;;5093055;28;19972;-71
2021/05/27 02:46:12;;;;;;;;;;;8.10;99.90;;;;;;5091934;28;19919;-71
2021/05/27 02:48:37;;;;;;;;;;;8.20;99.90;;;;;;5089970;28;19915;-70
2021/05/27 02:51:03;;;;;;;;;;;8.10;99.90;;;;;;5092456;28;19915;-71
2021/05/27 02:53:29;;;;;;;;;;;8.20;99.90;;;;;;5092707;28;19912;-71
2021/05/27 02:55:54;;;;;;;;;;;8.10;99.90;;;;;;5091996;28;20349;-71
2021/05/27 02:58:20;;;;;;;;;;;8.20;99.90;;;;;;5092773;28;19915;-70
2021/05/27 03:00:46;;;;;;;;;;;8.20;99.90;;;;;;5092568;28;20325;-69
2021/05/27 03:03:12;;;;;;;;;;;8.20;99.90;;;;;;5092713;28;20377;-71
2021/05/27 03:05:37;;;;;;;;;;;8.20;99.90;;;;;;5091740;28;19912;-71
2021/05/27 03:08:03;;;;;;;;;;;8.20;99.90;;;;;;5092119;28;20299;-71
2021/05/27 03:10:28;;;;;;;;;;;8.20;99.90;;;;;;5092697;28;20331;-70
2021/05/27 03:12:54;;;;;;;;;;;8.20;99.90;;;;;;5092465;28;19909;-71
2021/05/27 03:15:19;;;;;;;;;;;8.20;99.90;;;;;;5092243;28;20229;-71
2021/05/27 03:17:45;;;;;;;;;;;8.20;99.90;;;;;;5091498;28;19915;-71
2021/05/27 03:20:10;;;;;;;;;;;8.20;99.90;;;;;;5088989;28;19908;-73
2021/05/27 03:22:36;;;;;;;;;;;8.30;99.90;;;;;;5092247;28;19941;-70
2021/05/27 03:25:02;;;;;;;;;;;8.30;99.90;;;;;;5092253;28;19908;-70
2021/05/27 03:27:27;;;;;;;;;;;8.30;99.90;;;;;;5091661;28;19936;-69
2021/05/27 03:29:53;;;;;;;;;;;8.30;99.90;;;;;;5091997;28;19953;-70
2021/05/27 03:32:18;;;;;;;;;;;8.30;99.90;;;;;;5092255;28;20006;-73
2021/05/27 03:34:44;;;;;;;;;;;8.30;99.90;;;;;;5091741;28;19991;-70
2021/05/27 03:37:09;;;;;;;;;;;8.30;99.90;;;;;;5085686;28;19912;-70
2021/05/27 03:39:35;;;;;;;;;;;8.30;99.90;;;;;;5092008;28;19922;-70
2021/05/27 03:42:00;;;;;;;;;;;8.30;99.90;;;;;;5091962;28;19909;-70
2021/05/27 03:44:26;;;;;;;;;;;8.30;99.90;;;;;;5091973;28;19908;-70
2021/05/27 03:46:51;;;;;;;;;;;8.30;99.90;;;;;;5091978;28;19916;-70
2021/05/27 03:49:17;;;;;;;;;;;8.30;99.90;;;;;;5092999;28;19908;-74
2021/05/27 03:51:42;;;;;;;;;;;8.30;99.90;;;;;;5092129;28;19914;-69
2021/05/27 03:54:08;;;;;;;;;;;8.40;99.90;;;;;;5091740;28;19908;-70
2021/05/27 03:56:34;;;;;;;;;;;8.40;99.90;;;;;;5091087;28;20296;-69
2021/05/27 04:01:43;;;;;;;;;;;8.40;99.90;;;;;;5092950;28;19961;-71
2021/05/27 04:09:33;;;;;;;;;;;8.30;99.90;;;;;;5091467;28;19912;-74
2021/05/27 04:14:43;;;;;;;;;;;8.30;99.90;;;;;;5090967;28;20430;-69
2021/05/27 04:17:09;;;;;;;;;;;8.30;99.90;;;;;;5089293;28;19912;-69
2021/05/27 04:19:35;;;;;;;;;;;8.20;99.90;;;;;;5091299;28;20428;-69
2021/05/27 04:22:00;;;;;;;;;;;8.20;99.90;;;;;;5091455;28;20004;-69
2021/05/27 04:24:26;;;;;;;;;;;8.20;99.90;;;;;;5091430;28;19912;-70
2021/05/27 04:26:51;;;;;;;;;;;8.20;99.90;;;;;;5090690;28;19913;-69
2021/05/27 04:29:17;;;;;;;;;;;8.20;99.90;;;;;;5091442;28;19908;-70
2021/05/27 04:31:42;;;;;;;;;;;8.20;99.90;;;;;;5091475;28;19915;-69
2021/05/27 04:34:08;;;;;;;;;;;8.20;99.90;;;;;;5090969;28;19965;-72
2021/05/27 04:36:33;;;;;;;;;;;8.20;99.90;;;;;;5086510;28;19908;-69
2021/05/27 04:38:59;;;;;;;;;;;8.20;99.90;;;;;;5091397;28;20021;-70
2021/05/27 04:41:24;;;;;;;;;;;8.20;99.90;;;;;;5091318;28;20278;-73
2021/05/27 04:43:57;;;;;;;;;;;8.30;99.90;;;;;;5091255;28;19954;-69
2021/05/27 04:46:23;;;;;;;;;;;8.40;99.90;;;;;;5090274;28;19915;-71
2021/05/27 04:48:48;;;;;;;;;;;8.50;99.90;;;;;;5095811;28;20046;-69
2021/05/27 04:51:13;;;;;;;;;;;8.50;99.90;;;;;;5097594;28;20106;-69
2021/05/27 04:53:39;;;;;;;;;;;8.60;99.90;;;;;;5097972;28;19912;-70
2021/05/27 04:56:05;;;;;;;;;;;8.70;99.90;;;;;;5097259;28;20426;-72
2021/05/27 04:58:31;;;;;;;;;;;8.70;99.90;;;;;;5097719;28;19931;-69
2021/05/27 05:00:58;;;;;;;;;;;8.80;99.90;;;;;;5097956;28;20361;-71
2021/05/27 05:03:23;;;;;;;;;;;8.80;99.90;;;;;;5097704;28;19991;-70
2021/05/27 05:05:48;;;;;;;;;;;8.80;99.90;;;;;;5096785;28;19965;-71
2021/05/27 05:08:14;;;;;;;;;;;8.90;99.90;;;;;;5102476;28;19951;-69
2021/05/27 05:10:42;;;;;;;;;;;8.90;99.90;;;;;;5097897;27;20366;-70
2021/05/27 05:13:07;;;;;;;;;;;8.90;99.90;;;;;;5097898;28;19943;-70
2021/05/27 05:15:37;;;;;;;;;;;8.90;99.90;;;;;;5097453;28;19909;-71
2021/05/27 05:18:04;;;;;;;;;;;8.90;99.90;;;;;;5097682;28;20349;-69
2021/05/27 05:20:31;;;;;;;;;;;8.90;99.90;;;;;;5097139;28;20475;-70
2021/05/27 05:22:56;;;;;;;;;;;8.90;99.90;;;;;;5097793;28;19908;-70
2021/05/27 05:25:22;;;;;;;;;;;9.10;99.90;;;;;;5097563;28;19923;-69
2021/05/27 05:27:48;;;;;;;;;;;9.20;99.90;;;;;;5096813;28;19908;-69
2021/05/27 05:30:14;;;;;;;;;;;9.40;99.90;;;;;;5097610;28;19908;-72
2021/05/27 05:32:40;;;;;;;;;;;9.60;99.90;;;;;;5097472;28;19912;-71
2021/05/27 05:35:06;;;;;;;;;;;9.80;99.90;;;;;;5097324;28;19908;-70
2021/05/27 05:37:32;;;;;;;;;;;9.90;99.90;;;;;;5092853;28;19912;-69
2021/05/27 05:39:58;;;;;;;;;;;10.00;99.90;;;;;;5097048;28;20395;-70
2021/05/27 05:42:23;;;;;;;;;;;10.20;99.90;;;;;;5096855;28;19930;-73
2021/05/27 05:44:49;;;;;;;;;;;10.50;99.90;;;;;;5097102;28;20357;-69
2021/05/27 05:47:15;;;;;;;;;;;10.70;99.90;;;;;;5096105;28;19912;-72
2021/05/27 05:49:41;;;;;;;;;;;11.00;99.90;;;;;;5096846;28;19935;-70
2021/05/27 05:52:06;;;;;;;;;;;11.20;99.90;;;;;;5095889;28;19908;-70
2021/05/27 05:54:32;;;;;;;;;;;11.30;99.90;;;;;;5096916;28;19915;-70
2021/05/27 05:56:57;;;;;;;;;;;11.70;99.90;;;;;;5096472;28;19915;-70
2021/05/27 05:59:23;;;;;;;;;;;12.00;99.90;;;;;;5095446;28;20289;-70
2021/05/27 06:01:51;;;;;;;;;;;12.20;99.90;;;;;;5094114;28;20007;-74
2021/05/27 06:04:17;;;;;;;;;;;12.70;99.90;;;;;;5093642;28;19919;-70
2021/05/27 06:06:42;;;;;;;;;;;12.80;99.90;;;;;;5089448;28;20284;-70
2021/05/27 06:09:08;;;;;;;;;;;13.00;99.90;;;;;;5093873;28;19915;-69
2021/05/27 06:11:33;;;;;;;;;;;13.10;99.90;;;;;;5093806;28;19950;-69
2021/05/27 06:13:59;;;;;;;;;;;12.80;99.90;;;;;;5093988;28;20041;-70
2021/05/27 06:16:24;;;;;;;;;;;12.40;99.90;;;;;;5093058;28;19908;-72
2021/05/27 06:18:50;;;;;;;;;;;12.50;99.90;;;;;;5093509;28;20296;-70
2021/05/27 06:21:15;;;;;;;;;;;13.00;99.90;;;;;;5094010;28;19912;-71
2021/05/27 06:23:41;;;;;;;;;;;13.40;99.90;;;;;;5093757;28;20293;-70
2021/05/27 06:26:06;;;;;;;;;;;13.80;99.90;;;;;;5092720;28;19916;-72
2021/05/27 06:28:32;;;;;;;;;;;13.80;99.90;;;;;;5093540;28;19940;-70
2021/05/27 06:30:57;;;;;;;;;;;13.90;99.90;;;;;;5093675;28;19908;-69
2021/05/27 06:33:24;;;;;;;;;;;13.70;99.90;;;;;;5093283;28;19990;-71
2021/05/27 06:35:49;;;;;;;;;;;13.80;99.90;;;;;;5092485;28;19912;-70
2021/05/27 06:38:15;;;;;;;;;;;13.70;99.90;;;;;;5089703;28;19994;-73
2021/05/27 06:40:41;;;;;;;;;;;13.50;99.90;;;;;;5093065;28;20006;-69
2021/05/27 06:43:06;;;;;;;;;;;13.60;99.90;;;;;;5093510;28;19947;-70
2021/05/27 06:45:32;;;;;;;;;;;14.00;99.90;;;;;;5092987;28;19959;-74
2021/05/27 06:47:58;;;;;;;;;;;14.40;99.90;;;;;;5092494;28;19909;-69
2021/05/27 06:50:33;;;;;;;;;;;14.80;99.90;;;;;;5093176;28;19908;-70
2021/05/27 06:53:19;;;;;;;;;;;14.90;99.90;;;;;;5093252;28;20356;-69
2021/05/27 06:55:45;;;;;;;;;;;14.60;99.90;;;;;;5092018;28;19951;-70
2021/05/27 06:58:11;;;;;;;;;;;14.60;99.90;;;;;;5093004;28;19908;-70
2021/05/27 07:00:37;;;;;;;;;;;14.20;99.90;;;;;;5092940;28;19919;-69
2021/05/27 07:03:03;;;;;;;;;;;14.30;99.90;;;;;;5093275;28;20061;-70
2021/05/27 07:05:28;;;;;;;;;;;14.80;99.90;;;;;;5092770;28;19923;-70
2021/05/27 07:07:55;;;;;;;;;;;15.60;99.90;;;;;;5088179;28;19908;-69
2021/05/27 07:10:20;;;;;;;;;;;15.80;99.90;;;;;;5091727;28;20003;-69
2021/05/27 07:12:46;;;;;;;;;;;15.80;99.90;;;;;;5091628;28;20398;-71
2021/05/27 07:15:12;;;;;;;;;;;15.20;99.90;;;;;;5092532;28;19914;-69
2021/05/27 07:17:38;;;;;;;;;;;15.30;99.90;;;;;;5091833;28;19908;-71
2021/05/27 07:20:03;;;;;;;;;;;15.60;99.90;;;;;;5092696;28;20015;-69
2021/05/27 07:22:29;;;;;;;;;;;16.30;99.90;;;;;;5074325;28;19922;-69
2021/05/27 07:24:54;;;;;;;;;;;16.60;99.90;;;;;;5072072;28;19962;-69
2021/05/27 07:27:20;;;;;;;;;;;16.90;99.90;;;;;;5070047;28;19918;-70
2021/05/27 07:29:48;;;;;;;;;;;17.00;99.90;;;;;;5072129;28;19917;-68
2021/05/27 07:32:13;;;;;;;;;;;16.80;99.90;;;;;;5082905;28;19916;-69
2021/05/27 07:34:39;;;;;;;;;;;16.10;99.90;;;;;;5090933;28;20288;-68
2021/05/27 07:37:04;;;;;;;;;;;15.60;99.90;;;;;;5086321;28;19953;-71
2021/05/27 07:39:30;;;;;;;;;;;15.50;99.90;;;;;;5086526;28;19909;-68
2021/05/27 07:41:55;;;;;;;;;;;15.40;99.90;;;;;;5091068;28;20003;-69
2021/05/27 07:44:21;;;;;;;;;;;15.30;99.90;;;;;;5091419;28;20361;-69
2021/05/27 07:46:46;;;;;;;;;;;15.10;99.90;;;;;;5088709;28;19919;-69
2021/05/27 07:49:12;;;;;;;;;;;14.70;99.90;;;;;;5091753;28;19909;-69
2021/05/27 07:51:37;;;;;;;;;;;14.80;99.90;;;;;;5091976;28;19954;-69
2021/05/27 07:54:03;;;;;;;;;;;15.60;99.90;;;;;;5091720;28;19956;-68
2021/05/27 07:56:29;;;;;;;;;;;15.80;99.90;;;;;;5090567;28;19957;-71
2021/05/27 07:58:55;;;;;;;;;;;15.60;99.90;;;;;;5091622;28;20357;-69
2021/05/27 08:01:21;;;;;;;;;;;15.50;99.80;;;;;;5091542;28;19908;-71
2021/05/27 08:03:46;;;;;;;;;;;15.30;99.90;;;;;;5091435;28;19938;-69
2021/05/27 08:06:12;;;;;;;;;;;15.10;99.90;;;;;;5087439;28;20388;-69
2021/05/27 08:08:37;;;;;;;;;;;15.30;99.90;;;;;;5090901;28;19916;-70
2021/05/27 08:11:03;;;;;;;;;;;15.70;99.90;;;;;;5091145;28;19908;-69
2021/05/27 08:13:29;;;;;;;;;;;16.30;99.90;;;;;;5091107;28;20178;-69
2021/05/27 08:15:54;;;;;;;;;;;17.10;99.90;;;;;;5079035;28;19927;-68
2021/05/27 08:18:20;;;;;;;;;;;17.90;96.70;;;;;;5091156;28;20339;-69
2021/05/27 08:20:45;;;;;;;;;;;18.30;96.90;;;;;;5091297;28;19955;-69
2021/05/27 08:23:11;;;;;;;;;;;18.60;95.30;;;;;;5090931;28;19914;-68
2021/05/27 08:25:36;;;;;;;;;;;18.00;94.30;;;;;;5090038;28;20124;-69
2021/05/27 08:28:02;;;;;;;;;;;17.60;95.80;;;;;;5090412;28;19981;-69
2021/05/27 08:30:27;;;;;;;;;;;17.50;96.50;;;;;;5091037;28;19908;-71
2021/05/27 08:32:53;;;;;;;;;;;17.80;95.50;;;;;;5091076;28;19999;-69
2021/05/27 08:35:20;;;;;;;;;;;17.80;93.00;;;;;;5090791;28;19912;-69
2021/05/27 08:37:46;;;;;;;;;;;17.90;94.00;;;;;;5086374;28;19908;-72
2021/05/27 08:40:12;;;;;;;;;;;17.70;92.40;;;;;;5090290;28;19916;-70
2021/05/27 08:42:37;;;;;;;;;;;17.50;92.50;;;;;;5091419;28;19912;-69
2021/05/27 08:45:04;;;;;;;;;;;17.10;92.90;;;;;;5090911;28;19908;-69
2021/05/27 08:47:29;;;;;;;;;;;16.80;95.90;;;;;;5089935;28;19915;-69
2021/05/27 08:49:55;;;;;;;;;;;17.00;95.00;;;;;;5090972;28;20395;-70
2021/05/27 08:52:20;;;;;;;;;;;17.50;95.20;;;;;;5091116;28;19926;-70
2021/05/27 08:54:46;;;;;;;;;;;18.20;95.00;;;;;;5090875;28;19962;-72
2021/05/27 08:57:12;;;;;;;;;;;18.70;94.80;;;;;;5089890;28;19981;-69
2021/05/27 08:59:37;;;;;;;;;;;19.10;93.30;;;;;;5090860;28;19908;-69
2021/05/27 09:02:10;;;;;;;;;;;19.30;92.00;;;;;;5091069;28;19955;-69
2021/05/27 09:04:35;;;;;;;;;;;19.40;92.10;;;;;;5090675;28;19909;-68
2021/05/27 09:07:01;;;;;;;;;;;19.40;90.80;;;;;;5086157;28;20382;-69
2021/05/27 09:09:45;;;;;;;;;;;18.60;89.60;;;;;;5090287;28;20292;-71
2021/05/27 09:12:40;;;;;;;;;;;18.00;93.20;;;;;;5090666;28;20372;-70
2021/05/27 09:15:18;;;;;;;;;;;18.20;94.60;;;;;;5081374;28;19961;-70
2021/05/27 09:17:44;;;;;;;;;;;18.90;94.80;;;;;;5089738;28;19915;-70
2021/05/27 09:20:11;;;;;;;;;;;19.70;91.80;;;;;;5090456;28;19916;-70
2021/05/27 09:22:37;;;;;;;;;;;20.20;91.80;;;;;;5090467;28;19908;-70
2021/05/27 09:25:03;;;;;;;;;;;20.60;90.10;;;;;;5090350;28;19908;-71
2021/05/27 09:27:47;;;;;;;;;;;20.80;88.60;;;;;;5089312;28;20115;-72
2021/05/27 09:30:14;;;;;;;;;;;21.10;90.00;;;;;;5090745;28;20027;-73
2021/05/27 09:32:43;;;;;;;;;;;21.40;88.10;;;;;;5089984;28;19908;-70
2021/05/27 09:35:09;;;;;;;;;;;21.30;87.10;;;;;;5092218;28;19908;-71
2021/05/27 09:37:35;;;;;;;;;;;21.00;83.40;;;;;;5089667;28;19922;-72
2021/05/27 09:40:02;;;;;;;;;;;21.00;80.80;;;;;;5093936;28;19941;-71
2021/05/27 09:42:28;;;;;;;;;;;20.60;82.00;;;;;;5094089;28;19930;-70
2021/05/27 09:44:54;;;;;;;;;;;20.50;80.50;;;;;;5093833;28;20334;-69
2021/05/27 09:47:35;;;;;;;;;;;19.90;81.20;;;;;;5093541;28;19916;-69
2021/05/27 09:50:02;;;;;;;;;;;19.20;82.80;;;;;;5093921;28;19961;-69
2021/05/27 09:52:38;;;;;;;;;;;19.00;87.50;;;;;;5094262;28;19915;-69
2021/05/27 09:55:07;;;;;;;;;;;19.30;86.20;;;;;;5094086;28;19915;-71
2021/05/27 09:57:33;;;;;;;;;;;19.50;85.70;;;;;;5092695;28;19908;-71
2021/05/27 09:59:58;;;;;;;;;;;19.40;86.00;;;;;;5094038;28;19915;-69
2021/05/27 10:02:24;;;;;;;;;;;19.00;83.10;;;;;;5093608;28;20361;-69
2021/05/27 10:04:55;;;;;;;;;;;18.60;88.20;;;;;;5093833;28;19919;-71
2021/05/27 10:07:35;;;;;;;;;;;18.30;87.40;;;;;;5088801;28;19919;-69
2021/05/27 10:10:00;;;;;;;;;;;18.20;87.70;;;;;;5093364;28;19915;-69
2021/05/27 10:12:26;;;;;;;;;;;18.10;86.80;;;;;;5093220;28;19912;-69
2021/05/27 10:14:52;;;;;;;;;;;17.90;87.50;;;;;;5090245;28;19908;-69
2021/05/27 10:17:18;;;;;;;;;;;17.80;85.80;;;;;;5092800;28;19915;-71
2021/05/27 10:19:44;;;;;;;;;;;17.50;87.30;;;;;;5093430;28;20090;-69
2021/05/27 10:22:09;;;;;;;;;;;17.10;85.60;;;;;;5093592;28;19916;-69
2021/05/27 10:24:35;;;;;;;;;;;16.70;90.10;;;;;;5093397;28;20307;-70
2021/05/27 10:27:00;;;;;;;;;;;16.40;90.30;;;;;;5092199;28;19916;-70
2021/05/27 10:29:26;;;;;;;;;;;16.10;89.60;;;;;;5093452;28;19908;-69
2021/05/27 10:31:53;;;;;;;;;;;15.80;90.30;;;;;;5093176;28;20003;-70
2021/05/27 10:34:37;;;;;;;;;;;15.60;91.00;;;;;;5093236;28;20002;-73
2021/05/27 10:37:06;;;;;;;;;;;15.50;91.10;;;;;;5088113;28;19980;-70
2021/05/27 10:39:31;;;;;;;;;;;15.30;91.30;;;;;;5092947;28;19912;-70
2021/05/27 10:41:57;;;;;;;;;;;15.20;91.20;;;;;;5092847;28;19915;-69
2021/05/27 10:44:23;;;;;;;;;;;15.10;91.70;;;;;;5092943;28;19912;-70
2021/05/27 10:46:49;;;;;;;;;;;15.10;93.10;;;;;;5091648;28;20388;-71
2021/05/27 10:49:33;;;;;;;;;;;15.50;92.40;;;;;;5093054;28;19909;-70
2021/05/27 10:52:18;;;;;;;;;;;15.80;90.70;;;;;;5092987;28;19956;-70
2021/05/27 10:54:45;;;;;;;;;;;16.10;90.80;;;;;;5092572;28;19943;-70
2021/05/27 10:57:10;;;;;;;;;;;15.90;90.10;;;;;;5091833;28;20349;-69
2021/05/27 10:59:35;;;;;;;;;;;15.70;90.80;;;;;;5085002;28;19946;-70
2021/05/27 11:02:02;;;;;;;;;;;15.60;90.90;;;;;;5092234;28;19914;-70
2021/05/27 11:04:29;;;;;;;;;;;15.60;90.40;;;;;;5083754;28;20331;-70
2021/05/27 11:07:15;;;;;;;;;;;15.70;88.40;;;;;;5077908;28;19942;-69
2021/05/27 11:09:41;;;;;;;;;;;15.60;88.10;;;;;;5076323;28;19939;-69
2021/05/27 11:12:09;;;;;;;;;;;15.70;90.10;;;;;;5071112;28;19913;-70
2021/05/27 11:14:43;;;;;;;;;;;15.90;90.70;;;;;;5073700;28;20166;-69
2021/05/27 11:17:12;;;;;;;;;;;16.00;89.70;;;;;;5085275;28;19943;-70
2021/05/27 11:19:48;;;;;;;;;;;16.10;89.40;;;;;;5079813;28;19908;-72
2021/05/27 11:25:09;;;;;;;;;;;16.30;88.20;;;;;;5086330;28;19908;-69
2021/05/27 11:27:34;;;;;;;;;;;16.10;88.90;;;;;;5090832;28;20379;-70
2021/05/27 11:30:12;;;;;;;;;;;16.00;89.30;;;;;;5092441;28;19908;-70
2021/05/27 11:32:37;;;;;;;;;;;15.90;90.10;;;;;;5092041;28;20270;-69
2021/05/27 11:35:03;;;;;;;;;;;15.90;91.30;;;;;;5091646;28;19908;-69
2021/05/27 11:37:33;;;;;;;;;;;15.80;89.40;;;;;;5086780;28;19926;-71
2021/05/27 11:39:59;;;;;;;;;;;15.50;90.80;;;;;;5091382;28;19912;-69
2021/05/27 11:42:24;;;;;;;;;;;15.30;91.80;;;;;;5091568;28;19932;-70
2021/05/27 11:44:56;;;;;;;;;;;15.10;91.80;;;;;;5092004;28;19919;-71
2021/05/27 11:47:22;;;;;;;;;;;15.20;92.70;;;;;;5090869;28;19943;-71
2021/05/27 11:50:14;;;;;;;;;;;15.30;91.00;;;;;;5091381;28;20366;-70
2021/05/27 11:52:39;;;;;;;;;;;15.50;90.60;;;;;;5089112;28;20485;-69
2021/05/27 11:55:06;;;;;;;;;;;16.00;90.60;;;;;;5091619;28;19915;-70
2021/05/27 11:57:47;;;;;;;;;;;16.80;88.00;;;;;;5090128;28;19999;-69
2021/05/27 12:00:14;;;;;;;;;;;17.30;89.80;;;;;;5091362;28;19912;-70
2021/05/27 12:02:46;;;;;;;;;;;17.60;87.10;;;;;;5091416;28;20331;-70
2021/05/27 12:05:33;;;;;;;;;;;17.40;86.10;;;;;;5091388;28;19908;-69
2021/05/27 12:07:59;;;;;;;;;;;17.30;85.30;;;;;;5086946;28;19957;-70
2021/05/27 12:10:25;;;;;;;;;;;17.20;85.90;;;;;;5091269;28;19908;-70
2021/05/27 12:12:50;;;;;;;;;;;17.10;88.60;;;;;;5090506;28;19908;-73
2021/05/27 12:15:17;;;;;;;;;;;16.90;90.60;;;;;;5091285;28;19999;-70
2021/05/27 12:17:45;;;;;;;;;;;16.70;91.80;;;;;;5090524;28;20345;-70
2021/05/27 12:20:13;;;;;;;;;;;16.80;91.90;;;;;;5091299;28;19908;-72
2021/05/27 12:22:44;;;;;;;;;;;16.90;91.50;;;;;;5091047;28;20207;-70
2021/05/27 12:25:10;;;;;;;;;;;17.10;92.50;;;;;;5090889;28;19912;-70
2021/05/27 12:27:44;;;;;;;;;;;17.20;90.80;;;;;;5089822;28;19922;-70
2021/05/27 12:30:10;;;;;;;;;;;17.10;91.40;;;;;;5091017;28;19943;-70
2021/05/27 12:32:38;;;;;;;;;;;17.00;90.70;;;;;;5091344;28;19912;-71
2021/05/27 12:35:05;;;;;;;;;;;17.10;90.60;;;;;;5092232;28;19912;-70
2021/05/27 12:37:38;;;;;;;;;;;17.20;90.80;;;;;;5090149;28;19923;-70
2021/05/27 12:40:05;;;;;;;;;;;17.20;91.40;;;;;;5111715;28;20322;-70
2021/05/27 12:42:35;;;;;;;;;;;17.20;91.20;;;;;;5111062;28;20279;-70
2021/05/27 12:45:00;;;;;;;;;;;17.10;91.40;;;;;;5111032;28;19908;-69
2021/05/27 12:47:26;;;;;;;;;;;17.10;90.80;;;;;;5109885;28;19935;-70
2021/05/27 12:49:53;;;;;;;;;;;17.10;91.30;;;;;;5111020;28;19908;-72
2021/05/27 12:52:38;;;;;;;;;;;17.10;90.50;;;;;;5110812;28;19994;-71
2021/05/27 12:55:05;;;;;;;;;;;17.20;91.60;;;;;;5110534;28;19908;-70
2021/05/27 12:57:30;;;;;;;;;;;17.10;90.90;;;;;;5110350;28;19912;-70
2021/05/27 12:59:56;;;;;;;;;;;17.10;90.90;;;;;;5111044;28;20273;-73
2021/05/27 13:02:25;;;;;;;;;;;17.10;91.90;;;;;;5111152;28;19916;-71
2021/05/27 13:04:51;;;;;;;;;;;17.30;91.90;;;;;;5110678;28;19992;-70
2021/05/27 13:07:18;;;;;;;;;;;17.40;91.50;;;;;;5093771;28;19982;-70
2021/05/27 13:09:45;;;;;;;;;;;17.30;91.00;;;;;;5093580;28;20228;-70
2021/05/27 13:12:10;;;;;;;;;;;17.20;91.20;;;;;;5094300;28;19915;-70
2021/05/27 13:14:36;;;;;;;;;;;17.20;90.10;;;;;;5094423;28;19908;-72
2021/05/27 13:17:15;;;;;;;;;;;17.00;90.20;;;;;;5093936;28;19912;-70
2021/05/27 13:19:42;;;;;;;;;;;17.10;89.70;;;;;;5094404;28;20426;-70
2021/05/27 13:22:28;;;;;;;;;;;17.20;86.40;;;;;;5094705;28;20425;-72
2021/05/27 13:25:04;;;;;;;;;;;17.30;87.70;;;;;;5094275;28;19915;-70
2021/05/27 13:27:34;;;;;;;;;;;17.30;89.50;;;;;;5093517;28;19983;-69
2021/05/27 13:30:01;;;;;;;;;;;17.80;91.10;;;;;;5094855;28;19928;-70
2021/05/27 13:32:30;;;;;;;;;;;18.20;86.70;;;;;;5094266;28;19919;-70
2021/05/27 13:35:00;;;;;;;;;;;18.00;85.50;;;;;;5094313;28;19951;-70
2021/05/27 13:37:26;;;;;;;;;;;17.90;88.10;;;;;;5085293;28;19914;-70
2021/05/27 13:39:52;;;;;;;;;;;17.70;87.40;;;;;;5107608;28;20356;-70
2021/05/27 13:42:17;;;;;;;;;;;17.60;90.00;;;;;;5114051;28;19953;-70
2021/05/27 13:44:43;;;;;;;;;;;17.40;88.30;;;;;;5114285;28;19907;-72
2021/05/27 13:47:08;;;;;;;;;;;17.40;88.90;;;;;;5113580;28;20353;-70
2021/05/27 13:49:33;;;;;;;;;;;17.30;89.80;;;;;;5114547;28;19907;-70
2021/05/27 13:52:01;;;;;;;;;;;17.40;89.20;;;;;;5114277;28;19947;-71
2021/05/27 13:54:27;;;;;;;;;;;17.60;90.70;;;;;;5114307;28;19915;-73
2021/05/27 13:56:52;;;;;;;;;;;17.80;90.20;;;;;;5113309;28;20269;-70
2021/05/27 13:59:21;;;;;;;;;;;17.80;86.80;;;;;;5114451;28;19908;-70
2021/05/27 14:01:47;;;;;;;;;;;17.50;88.10;;;;;;5114177;28;19908;-72
2021/05/27 14:04:13;;;;;;;;;;;17.40;88.20;;;;;;5114190;28;19915;-73
2021/05/27 14:06:39;;;;;;;;;;;17.30;88.60;;;;;;5113118;28;19912;-70
2021/05/27 14:09:08;;;;;;;;;;;17.10;89.20;;;;;;5107380;28;20417;-70
2021/05/27 14:11:34;;;;;;;;;;;17.00;87.70;;;;;;5113117;28;19955;-73
2021/05/27 14:14:00;;;;;;;;;;;16.80;86.30;;;;;;5114154;28;19908;-70
2021/05/27 14:16:25;;;;;;;;;;;16.70;89.00;;;;;;5113047;28;19953;-71
2021/05/27 14:18:51;;;;;;;;;;;16.70;87.60;;;;;;5114220;28;19911;-70
2021/05/27 14:21:16;;;;;;;;;;;16.80;89.70;;;;;;5113327;28;19955;-70
2021/05/27 14:23:42;;;;;;;;;;;16.90;90.00;;;;;;5113585;28;19908;-70
2021/05/27 14:26:07;;;;;;;;;;;16.90;88.40;;;;;;5112402;28;20361;-72
2021/05/27 14:28:33;;;;;;;;;;;16.80;88.20;;;;;;5113392;28;19965;-70
2021/05/27 14:30:58;;;;;;;;;;;16.70;88.60;;;;;;5113795;28;19911;-70
2021/05/27 14:33:24;;;;;;;;;;;16.80;90.40;;;;;;5113508;28;19989;-71